Time;durP1;ratioP1;P1;durP2;ratioP2;P2;SDS_P1;SDS_P2;PMS_P1;PMS_P2;Temp;Humidity;BMP_temperature;BMP_pressure;BME280_temperature;BME280_humidity;BME280_pressure;Samples;Min_cycle;Max_cycle;Signal;HPM_P1;HPM_P2
2021/08/17 00:00:29;;;;;;;21.08;16.27;;;25.00;92.20;;;;;;5093309;28;20394;-85
2021/08/17 00:02:54;;;;;;;22.25;16.48;;;25.00;92.20;;;;;;5058346;28;20461;-85
2021/08/17 00:05:21;;;;;;;21.88;15.80;;;25.00;92.20;;;;;;5074924;28;20036;-85
2021/08/17 00:07:46;;;;;;;22.90;16.40;;;24.90;92.20;;;;;;5057997;28;20040;-85
2021/08/17 00:10:13;;;;;;;23.98;17.05;;;24.90;92.20;;;;;;5075209;28;20523;-84
2021/08/17 00:12:39;;;;;;;21.77;17.13;;;25.00;92.20;;;;;;5058404;28;20039;-84
2021/08/17 00:15:05;;;;;;;25.48;16.80;;;25.00;92.20;;;;;;5092883;28;20036;-84
2021/08/17 00:17:31;;;;;;;23.08;17.13;;;24.90;92.20;;;;;;5092888;28;20173;-84
2021/08/17 00:19:57;;;;;;;25.00;16.70;;;25.00;92.20;;;;;;5074622;28;20466;-83
2021/08/17 00:22:23;;;;;;;21.02;16.45;;;25.00;92.20;;;;;;5074710;28;20377;-84
2021/08/17 00:24:50;;;;;;;21.50;16.27;;;24.90;92.20;;;;;;5074232;28;20058;-84
2021/08/17 00:27:16;;;;;;;21.65;16.40;;;25.00;92.20;;;;;;5092721;28;20048;-84
2021/08/17 00:29:41;;;;;;;23.08;16.70;;;24.90;92.20;;;;;;5057990;28;20056;-84
2021/08/17 00:32:07;;;;;;;20.88;16.20;;;25.00;92.20;;;;;;5074587;28;20473;-84
2021/08/17 00:34:32;;;;;;;20.58;16.35;;;24.90;92.20;;;;;;5057914;28;20034;-85
2021/08/17 00:36:58;;;;;;;22.83;16.77;;;24.90;92.20;;;;;;5074747;28;20123;-85
2021/08/17 00:39:25;;;;;;;21.63;16.23;;;24.90;92.20;;;;;;5074630;28;20025;-84
2021/08/17 00:41:50;;;;;;;22.13;17.17;;;24.90;92.30;;;;;;5058219;28;20035;-85
2021/08/17 00:44:24;;;;;;;19.92;16.17;;;25.00;92.30;;;;;;5057705;28;20065;-85
2021/08/17 00:46:50;;;;;;;20.88;16.55;;;25.00;92.40;;;;;;5074380;28;20032;-85
2021/08/17 00:49:17;;;;;;;23.40;16.95;;;24.90;92.40;;;;;;5040464;28;20497;-85
2021/08/17 00:51:42;;;;;;;22.73;16.20;;;25.00;92.40;;;;;;5092453;28;20039;-84
2021/08/17 00:54:08;;;;;;;22.75;17.73;;;24.90;92.40;;;;;;5057633;28;20054;-84
2021/08/17 00:56:34;;;;;;;20.73;16.25;;;24.90;92.50;;;;;;5074262;28;20035;-85
2021/08/17 00:59:00;;;;;;;21.20;16.38;;;24.90;92.50;;;;;;5074016;28;20024;-85
2021/08/17 01:01:26;;;;;;;21.05;16.23;;;25.00;92.50;;;;;;5074397;28;20020;-84
2021/08/17 01:03:51;;;;;;;20.60;15.90;;;24.90;92.50;;;;;;5074391;28;20032;-85
2021/08/17 01:06:17;;;;;;;22.80;17.42;;;25.00;92.60;;;;;;5074673;28;20396;-85
2021/08/17 01:08:43;;;;;;;24.17;16.83;;;25.00;92.60;;;;;;5057711;28;20554;-85
2021/08/17 01:11:08;;;;;;;20.45;16.30;;;25.00;92.60;;;;;;5074155;28;20056;-84
2021/08/17 01:13:34;;;;;;;22.80;17.65;;;25.00;92.60;;;;;;5077915;28;20584;-84
2021/08/17 01:16:00;;;;;;;21.23;16.60;;;25.00;92.60;;;;;;5074720;28;20028;-84
2021/08/17 01:18:25;;;;;;;18.13;15.15;;;25.00;92.70;;;;;;5057770;28;20024;-84
2021/08/17 01:20:54;;;;;;;20.67;15.82;;;25.00;92.70;;;;;;5073896;28;20385;-85
2021/08/17 01:23:21;;;;;;;22.13;15.88;;;25.00;92.70;;;;;;5073869;28;20032;-84
2021/08/17 01:25:47;;;;;;;18.00;14.88;;;25.00;92.70;;;;;;5057546;28;20040;-85
2021/08/17 01:28:14;;;;;;;20.73;15.00;;;25.00;92.70;;;;;;5092057;28;20032;-84
2021/08/17 01:30:39;;;;;;;19.70;15.30;;;25.00;92.70;;;;;;5074176;28;20028;-84
2021/08/17 01:33:05;;;;;;;21.63;15.98;;;25.00;92.70;;;;;;5092281;28;20491;-85
2021/08/17 01:35:31;;;;;;;21.13;15.73;;;24.90;92.70;;;;;;5075153;28;20039;-84
2021/08/17 01:37:57;;;;;;;20.08;15.35;;;25.00;92.80;;;;;;5073700;28;20028;-85
2021/08/17 01:40:22;;;;;;;21.45;16.38;;;25.00;92.70;;;;;;5058301;28;20508;-84
2021/08/17 01:42:51;;;;;;;20.13;15.18;;;25.00;92.70;;;;;;5074227;28;20032;-85
2021/08/17 01:45:18;;;;;;;20.40;15.07;;;25.00;92.70;;;;;;5073898;28;20047;-84
2021/08/17 01:47:46;;;;;;;18.67;14.73;;;25.00;92.70;;;;;;5073957;28;20107;-84
2021/08/17 01:50:13;;;;;;;16.88;14.43;;;25.00;92.70;;;;;;5091883;28;20028;-85
2021/08/17 01:52:38;;;;;;;19.15;15.20;;;25.00;92.70;;;;;;5074113;28;20444;-84
2021/08/17 01:55:07;;;;;;;19.15;14.73;;;25.00;92.70;;;;;;5073852;28;20068;-84
2021/08/17 01:57:33;;;;;;;19.67;15.13;;;25.00;92.70;;;;;;5058575;28;20082;-84
2021/08/17 01:59:58;;;;;;;19.40;15.02;;;25.00;92.70;;;;;;5092334;28;20036;-85
2021/08/17 02:02:24;;;;;;;20.40;15.98;;;25.00;92.70;;;;;;5077058;28;20031;-85
2021/08/17 02:04:49;;;;;;;19.02;15.05;;;25.00;92.80;;;;;;5095636;28;20040;-84
2021/08/17 02:07:15;;;;;;;17.20;14.45;;;25.00;92.80;;;;;;5077273;28;20425;-85
2021/08/17 02:09:41;;;;;;;20.38;15.73;;;25.00;92.80;;;;;;5077107;28;20454;-84
2021/08/17 02:12:06;;;;;;;18.23;14.52;;;25.00;92.90;;;;;;5095238;28;20038;-84
2021/08/17 02:14:32;;;;;;;19.10;16.23;;;25.00;92.90;;;;;;5095113;28;20060;-84
2021/08/17 02:16:58;;;;;;;19.35;15.40;;;24.90;92.90;;;;;;5044082;28;20381;-85
2021/08/17 02:19:23;;;;;;;22.45;15.73;;;25.00;92.90;;;;;;5095756;28;20036;-85
2021/08/17 02:21:49;;;;;;;20.75;15.40;;;25.00;92.90;;;;;;5076982;28;20060;-84
2021/08/17 02:24:15;;;;;;;20.50;16.02;;;25.00;92.90;;;;;;5076215;28;20048;-84
2021/08/17 02:26:40;;;;;;;20.55;15.13;;;25.00;92.90;;;;;;5094835;28;20028;-84
2021/08/17 02:29:06;;;;;;;20.55;16.40;;;25.00;92.90;;;;;;5076576;28;20032;-84
2021/08/17 02:31:31;;;;;;;18.73;15.73;;;25.00;92.90;;;;;;5076971;28;20339;-84
2021/08/17 02:33:57;;;;;;;18.65;15.20;;;25.00;92.90;;;;;;5058036;28;20028;-85
2021/08/17 02:36:26;;;;;;;19.88;15.57;;;25.00;92.90;;;;;;5076335;28;20032;-84
2021/08/17 02:38:51;;;;;;;21.95;17.15;;;25.00;92.90;;;;;;5077012;28;20028;-85
2021/08/17 02:41:17;;;;;;;20.75;15.73;;;25.00;92.90;;;;;;5043215;28;20078;-84
2021/08/17 02:43:42;;;;;;;20.85;16.08;;;25.00;92.90;;;;;;5095060;28;20482;-84
2021/08/17 02:46:08;;;;;;;22.70;16.70;;;25.00;92.90;;;;;;5076232;28;20032;-85
2021/08/17 02:48:34;;;;;;;20.88;16.50;;;25.00;92.90;;;;;;5076479;28;20458;-85
2021/08/17 02:50:59;;;;;;;21.17;16.50;;;25.00;92.90;;;;;;5060055;28;20480;-84
2021/08/17 02:53:25;;;;;;;20.73;16.52;;;25.00;93.00;;;;;;5059629;28;20028;-84
2021/08/17 02:55:53;;;;;;;20.90;16.65;;;25.00;92.90;;;;;;5059908;28;20085;-84
2021/08/17 02:58:19;;;;;;;23.65;17.48;;;25.00;92.90;;;;;;5094013;28;20024;-85
2021/08/17 03:00:46;;;;;;;21.05;17.13;;;25.00;92.90;;;;;;5094544;28;20025;-84
2021/08/17 03:03:12;;;;;;;25.02;18.33;;;25.00;93.00;;;;;;5076644;28;20024;-84
2021/08/17 03:05:38;;;;;;;23.98;18.70;;;25.00;93.00;;;;;;5055266;28;20040;-85
2021/08/17 03:08:04;;;;;;;22.02;17.80;;;25.00;93.00;;;;;;5056268;28;20522;-85
2021/08/17 03:10:33;;;;;;;25.45;20.15;;;25.00;93.20;;;;;;5072936;28;20055;-84
2021/08/17 03:12:59;;;;;;;25.02;19.20;;;25.00;93.10;;;;;;5057564;28;20033;-87
2021/08/17 03:15:25;;;;;;;26.17;20.20;;;25.00;93.00;;;;;;5055937;28;20033;-84
2021/08/17 03:17:51;;;;;;;25.65;20.42;;;25.00;93.10;;;;;;5055852;28;20036;-84
2021/08/17 03:20:18;;;;;;;28.98;21.55;;;25.00;93.10;;;;;;5055746;28;20514;-85
2021/08/17 03:22:44;;;;;;;27.55;22.25;;;25.00;93.10;;;;;;5056052;28;20046;-84
2021/08/17 03:25:12;;;;;;;29.25;22.58;;;25.00;93.10;;;;;;5055159;28;20443;-85
2021/08/17 03:27:39;;;;;;;28.42;22.35;;;25.00;93.10;;;;;;5074762;28;20447;-84
2021/08/17 03:30:13;;;;;;;27.40;22.42;;;25.00;93.10;;;;;;5039594;28;20044;-85
2021/08/17 03:32:39;;;;;;;30.10;23.55;;;25.00;93.20;;;;;;5073765;28;20024;-84
2021/08/17 03:35:06;;;;;;;30.13;23.67;;;25.00;93.20;;;;;;5073025;28;20040;-84
2021/08/17 03:37:32;;;;;;;29.52;23.48;;;25.00;93.20;;;;;;5072543;28;20060;-84
2021/08/17 03:39:57;;;;;;;33.13;24.23;;;25.00;93.20;;;;;;5055688;28;20063;-84
2021/08/17 03:42:23;;;;;;;31.15;22.90;;;25.00;93.20;;;;;;5038696;28;20028;-85
2021/08/17 03:44:49;;;;;;;30.35;24.38;;;25.00;93.30;;;;;;5038838;28;20029;-84
2021/08/17 03:47:14;;;;;;;29.90;23.20;;;25.00;93.30;;;;;;5055138;28;20037;-84
2021/08/17 03:49:40;;;;;;;30.90;24.60;;;25.00;93.30;;;;;;5076710;28;20036;-85
2021/08/17 03:52:06;;;;;;;33.15;25.63;;;25.00;93.30;;;;;;5073257;28;20033;-84
2021/08/17 03:54:31;;;;;;;30.63;24.83;;;25.00;93.40;;;;;;5055638;28;20407;-85
2021/08/17 03:56:57;;;;;;;30.67;24.70;;;25.00;93.60;;;;;;5055017;28;20394;-85
2021/08/17 03:59:23;;;;;;;32.65;25.48;;;25.00;93.40;;;;;;5038100;28;20028;-84
2021/08/17 04:01:48;;;;;;;30.67;24.83;;;25.00;93.40;;;;;;5021784;28;20490;-84
2021/08/17 04:04:14;;;;;;;33.15;26.13;;;25.00;93.50;;;;;;5038231;28;20035;-84
2021/08/17 04:06:40;;;;;;;32.67;25.52;;;25.00;93.50;;;;;;5057760;28;20040;-84
2021/08/17 04:09:05;;;;;;;32.75;25.92;;;25.00;93.50;;;;;;5054673;28;20506;-84
2021/08/17 04:11:31;;;;;;;31.08;24.88;;;25.00;93.50;;;;;;5055128;28;20063;-83
2021/08/17 04:13:56;;;;;;;31.48;25.27;;;25.00;93.50;;;;;;5038033;28;20032;-85
2021/08/17 04:16:22;;;;;;;35.05;27.00;;;25.00;93.60;;;;;;5054724;28;20033;-84
2021/08/17 04:18:48;;;;;;;32.33;25.25;;;25.00;93.60;;;;;;5039437;28;20024;-84
2021/08/17 04:21:13;;;;;;;32.90;25.52;;;25.00;93.60;;;;;;5073022;28;20032;-85
2021/08/17 04:23:39;;;;;;;31.85;25.48;;;25.00;93.60;;;;;;5053811;28;20041;-85
2021/08/17 04:26:05;;;;;;;32.00;26.20;;;25.00;93.70;;;;;;5056010;28;20040;-87
2021/08/17 04:28:32;;;;;;;31.88;25.42;;;25.00;93.70;;;;;;5055954;28;20044;-84
2021/08/17 04:30:58;;;;;;;34.30;26.98;;;25.10;93.70;;;;;;5074885;28;20028;-84
2021/08/17 04:33:23;;;;;;;32.67;25.42;;;25.00;93.80;;;;;;5055522;28;20028;-84
2021/08/17 04:35:49;;;;;;;31.95;26.17;;;25.10;93.80;;;;;;5038018;28;20475;-84
2021/08/17 04:38:15;;;;;;;34.40;26.35;;;25.00;93.80;;;;;;5038224;28;20111;-85
2021/08/17 04:40:40;;;;;;;33.15;26.15;;;25.00;93.80;;;;;;5038736;28;20174;-85
2021/08/17 04:43:06;;;;;;;35.42;26.80;;;25.00;93.90;;;;;;5054739;28;20060;-85
2021/08/17 04:45:31;;;;;;;32.45;27.05;;;25.10;93.90;;;;;;5054216;28;20041;-84
2021/08/17 04:47:57;;;;;;;32.53;26.58;;;25.00;93.90;;;;;;5038072;28;20120;-85
2021/08/17 04:50:23;;;;;;;32.42;26.38;;;25.10;93.90;;;;;;5037822;28;20036;-85
2021/08/17 04:52:50;;;;;;;30.95;24.83;;;25.00;93.90;;;;;;5072501;28;20549;-84
2021/08/17 04:55:16;;;;;;;33.25;26.10;;;25.10;93.90;;;;;;5053933;28;20033;-85
2021/08/17 04:57:49;;;;;;;36.22;27.27;;;25.10;94.00;;;;;;5071104;28;20079;-85
2021/08/17 05:00:15;;;;;;;33.00;26.25;;;25.10;94.00;;;;;;5054107;28;20028;-84
2021/08/17 05:02:43;;;;;;;32.03;26.10;;;25.10;94.00;;;;;;5054934;28;20465;-84
2021/08/17 05:05:09;;;;;;;32.28;25.60;;;25.00;94.00;;;;;;5054381;28;20380;-87
2021/08/17 05:07:39;;;;;;;33.03;25.55;;;25.10;94.00;;;;;;5054523;28;20031;-84
2021/08/17 05:10:10;;;;;;;31.05;24.85;;;25.10;94.00;;;;;;5054310;28;20040;-85
2021/08/17 05:12:36;;;;;;;30.85;24.30;;;25.10;94.10;;;;;;5072367;28;20100;-84
2021/08/17 05:15:04;;;;;;;30.77;25.13;;;25.10;94.10;;;;;;5072765;28;20128;-84
2021/08/17 05:17:30;;;;;;;30.13;25.05;;;25.10;94.10;;;;;;5072071;28;20135;-85
2021/08/17 05:19:55;;;;;;;34.03;26.80;;;25.10;94.10;;;;;;5071872;28;20076;-84
2021/08/17 05:22:21;;;;;;;31.58;24.80;;;25.10;94.10;;;;;;5037341;28;20025;-84
2021/08/17 05:24:46;;;;;;;33.00;25.45;;;25.10;94.10;;;;;;5037256;28;20528;-84
2021/08/17 05:27:12;;;;;;;28.73;24.10;;;25.10;94.10;;;;;;5037398;28;20024;-85
2021/08/17 05:29:38;;;;;;;27.92;23.40;;;25.10;94.10;;;;;;5038010;28;20037;-85
2021/08/17 05:32:05;;;;;;;31.48;24.30;;;25.10;94.20;;;;;;5071759;28;20073;-84
2021/08/17 05:34:31;;;;;;;30.42;23.80;;;25.10;94.20;;;;;;5053929;28;20086;-85
2021/08/17 05:36:57;;;;;;;31.20;23.92;;;25.10;94.20;;;;;;5056705;28;20028;-84
2021/08/17 05:39:22;;;;;;;27.00;22.90;;;25.10;94.40;;;;;;5057613;28;20195;-84
2021/08/17 05:41:48;;;;;;;30.05;23.83;;;25.10;94.20;;;;;;5041331;28;20544;-84
2021/08/17 05:44:14;;;;;;;31.02;23.20;;;25.10;94.20;;;;;;5075320;28;20024;-86
2021/08/17 05:46:39;;;;;;;27.77;22.40;;;25.10;94.20;;;;;;5057844;28;20039;-85
2021/08/17 05:49:05;;;;;;;26.92;21.98;;;25.10;94.20;;;;;;5058269;28;20154;-84
2021/08/17 05:51:31;;;;;;;26.90;22.05;;;25.10;94.30;;;;;;5075384;28;20032;-84
2021/08/17 05:53:56;;;;;;;27.60;22.75;;;25.10;94.30;;;;;;5057625;28;20107;-85
2021/08/17 05:56:22;;;;;;;25.42;21.02;;;25.10;94.30;;;;;;5041611;28;20036;-84
2021/08/17 05:58:47;;;;;;;27.40;21.98;;;25.10;94.30;;;;;;5042579;28;20489;-84
2021/08/17 06:01:13;;;;;;;25.52;20.88;;;25.10;94.30;;;;;;5057348;28;20478;-84
2021/08/17 06:03:39;;;;;;;27.55;22.25;;;25.10;94.30;;;;;;5039994;28;20051;-86
2021/08/17 06:06:04;;;;;;;27.40;21.23;;;25.10;94.30;;;;;;5057127;28;20048;-84
2021/08/17 06:08:30;;;;;;;25.10;20.15;;;25.10;94.30;;;;;;5040377;28;20033;-89
2021/08/17 06:10:55;;;;;;;26.40;21.33;;;25.10;94.30;;;;;;5041793;28;20028;-84
2021/08/17 06:13:23;;;;;;;25.10;21.15;;;25.10;94.60;;;;;;5056896;28;20505;-85
2021/08/17 06:15:50;;;;;;;24.90;20.30;;;25.10;94.40;;;;;;5074818;28;20035;-85
2021/08/17 06:18:16;;;;;;;27.08;21.05;;;25.10;94.40;;;;;;5040546;28;20063;-84
2021/08/17 06:20:42;;;;;;;27.10;20.52;;;25.10;94.40;;;;;;5060020;28;20029;-84
2021/08/17 06:23:08;;;;;;;22.05;18.58;;;25.10;94.50;;;;;;5040040;28;20412;-85
2021/08/17 06:25:34;;;;;;;25.95;19.45;;;25.10;94.50;;;;;;5056451;28;20048;-84
2021/08/17 06:28:05;;;;;;;22.40;17.80;;;25.10;94.60;;;;;;5040441;28;20051;-85
2021/08/17 06:30:31;;;;;;;20.48;16.60;;;25.10;94.60;;;;;;5075370;28;20103;-85
2021/08/17 06:32:57;;;;;;;19.35;15.68;;;25.20;94.70;;;;;;5040808;28;20063;-84
2021/08/17 06:35:23;;;;;;;20.10;15.73;;;25.10;94.60;;;;;;5056316;28;20082;-84
2021/08/17 06:37:49;;;;;;;20.08;14.52;;;25.10;94.60;;;;;;5056377;28;20474;-85
2021/08/17 06:40:15;;;;;;;18.05;13.50;;;25.10;94.60;;;;;;5073588;28;20042;-84
2021/08/17 06:42:41;;;;;;;17.80;13.13;;;25.10;94.60;;;;;;5040717;28;20116;-85
2021/08/17 06:45:07;;;;;;;14.77;12.52;;;25.10;94.60;;;;;;5057363;28;20391;-84
2021/08/17 06:47:33;;;;;;;15.57;12.25;;;25.10;94.60;;;;;;5077601;28;20032;-84
2021/08/17 06:49:58;;;;;;;17.55;11.60;;;25.10;94.60;;;;;;5057405;28;20078;-85
2021/08/17 06:52:24;;;;;;;14.40;11.35;;;25.10;94.60;;;;;;5058016;28;20036;-85
2021/08/17 06:54:50;;;;;;;16.33;12.18;;;25.10;94.60;;;;;;5056767;28;20039;-86
2021/08/17 06:57:15;;;;;;;15.98;11.52;;;25.10;94.50;;;;;;5039848;28;20033;-85
2021/08/17 06:59:41;;;;;;;15.45;11.02;;;25.10;94.50;;;;;;5073290;28;20587;-84
2021/08/17 07:02:06;;;;;;;15.73;11.32;;;25.10;94.50;;;;;;5057464;28;20073;-85
2021/08/17 07:04:32;;;;;;;15.02;11.07;;;25.10;94.50;;;;;;5073662;28;20040;-85
2021/08/17 07:06:58;;;;;;;16.25;11.60;;;25.10;94.50;;;;;;5056413;28;20467;-84
2021/08/17 07:09:23;;;;;;;14.98;10.93;;;25.10;94.50;;;;;;5038981;28;20161;-85
2021/08/17 07:11:49;;;;;;;14.88;11.30;;;25.10;94.50;;;;;;5073944;28;20028;-84
2021/08/17 07:14:14;;;;;;;15.85;11.23;;;25.10;94.50;;;;;;5056300;28;20035;-84
2021/08/17 07:16:40;;;;;;;18.05;11.82;;;25.10;94.50;;;;;;5039383;28;20032;-85
2021/08/17 07:19:06;;;;;;;15.82;11.77;;;25.10;94.50;;;;;;5073685;28;20043;-83
2021/08/17 07:21:31;;;;;;;15.32;11.45;;;25.10;94.50;;;;;;5055614;28;20492;-84
2021/08/17 07:23:57;;;;;;;16.92;12.55;;;25.10;94.50;;;;;;5039028;28;20032;-84
2021/08/17 07:26:23;;;;;;;16.30;11.45;;;25.10;94.60;;;;;;5055800;28;20135;-83
2021/08/17 07:28:48;;;;;;;15.02;11.25;;;25.10;94.60;;;;;;5058195;28;20486;-84
2021/08/17 07:31:14;;;;;;;17.83;11.82;;;25.10;94.60;;;;;;5055807;28;20386;-84
2021/08/17 07:33:40;;;;;;;15.75;11.18;;;25.10;94.60;;;;;;5055459;28;20440;-82
2021/08/17 07:36:06;;;;;;;13.38;10.35;;;25.10;94.60;;;;;;5038780;28;20086;-82
2021/08/17 07:38:31;;;;;;;18.55;10.48;;;25.10;94.60;;;;;;5055231;28;20496;-83
2021/08/17 07:40:57;;;;;;;15.63;9.25;;;25.10;94.60;;;;;;5038718;28;20094;-83
2021/08/17 07:43:22;;;;;;;12.02;9.45;;;25.10;94.60;;;;;;5055946;28;20034;-84
2021/08/17 07:45:48;;;;;;;13.32;8.85;;;25.10;94.60;;;;;;5058984;28;20102;-84
2021/08/17 07:48:14;;;;;;;12.90;8.85;;;25.10;94.60;;;;;;5057537;28;20066;-83
2021/08/17 07:50:43;;;;;;;12.02;8.38;;;25.10;94.60;;;;;;5074314;28;20036;-83
2021/08/17 07:53:09;;;;;;;11.55;7.47;;;25.10;94.60;;;;;;5074852;28;20024;-86
2021/08/17 07:55:35;;;;;;;9.32;6.95;;;25.10;94.60;;;;;;5092727;28;20035;-84
2021/08/17 07:58:01;;;;;;;9.15;6.90;;;25.10;94.60;;;;;;5039810;28;20028;-84
2021/08/17 08:00:27;;;;;;;13.00;7.85;;;25.10;94.50;;;;;;5058311;28;20482;-85
2021/08/17 08:02:53;;;;;;;9.23;6.72;;;25.10;94.50;;;;;;5074594;28;20028;-83
2021/08/17 08:05:18;;;;;;;10.13;6.65;;;25.10;94.50;;;;;;5075452;28;20160;-85
2021/08/17 08:07:44;;;;;;;10.95;6.68;;;25.10;94.40;;;;;;5042591;28;20028;-84
2021/08/17 08:10:10;;;;;;;9.30;6.85;;;25.10;94.40;;;;;;5075048;28;20036;-83
2021/08/17 08:12:36;;;;;;;10.00;6.40;;;25.10;94.40;;;;;;5092971;28;20063;-84
2021/08/17 08:15:01;;;;;;;8.85;6.43;;;25.10;94.30;;;;;;5058433;28;20032;-83
2021/08/17 08:17:27;;;;;;;10.70;6.47;;;25.10;94.30;;;;;;5041239;28;20382;-83
2021/08/17 08:19:53;;;;;;;9.30;6.35;;;25.10;94.30;;;;;;5057565;28;20466;-83
2021/08/17 08:22:18;;;;;;;7.75;5.50;;;25.10;94.30;;;;;;5092603;28;20091;-83
2021/08/17 08:24:44;;;;;;;7.50;5.40;;;25.10;94.30;;;;;;5057369;28;20056;-83
2021/08/17 08:27:11;;;;;;;8.02;5.38;;;25.10;94.30;;;;;;5074459;28;20036;-83
2021/08/17 08:29:37;;;;;;;7.50;5.00;;;25.10;94.30;;;;;;5092390;28;20032;-84
2021/08/17 08:32:03;;;;;;;8.57;5.75;;;25.10;94.30;;;;;;5074571;28;20031;-84
2021/08/17 08:34:29;;;;;;;7.07;5.20;;;25.10;94.30;;;;;;5071938;28;20036;-83
2021/08/17 08:36:54;;;;;;;7.65;5.18;;;25.10;94.30;;;;;;5073881;28;20077;-83
2021/08/17 08:39:20;;;;;;;7.85;5.20;;;25.10;94.20;;;;;;5092639;28;20027;-83
2021/08/17 08:41:48;;;;;;;7.03;4.85;;;25.10;94.20;;;;;;5074727;28;20036;-84
2021/08/17 08:44:14;;;;;;;7.05;5.38;;;25.10;94.20;;;;;;5092199;28;20035;-84
2021/08/17 08:46:43;;;;;;;8.05;5.32;;;25.10;94.20;;;;;;5073450;28;20043;-84
2021/08/17 08:49:09;;;;;;;6.38;4.47;;;25.10;94.20;;;;;;5061509;28;20032;-83
2021/08/17 08:51:36;;;;;;;6.18;4.20;;;25.10;94.20;;;;;;5057349;28;20024;-84
2021/08/17 08:54:03;;;;;;;7.72;4.40;;;25.10;94.10;;;;;;5092083;28;20044;-84
2021/08/17 08:56:29;;;;;;;6.63;4.68;;;25.10;94.10;;;;;;5074309;28;20097;-82
2021/08/17 08:58:57;;;;;;;6.40;4.53;;;25.10;94.10;;;;;;5057441;28;20082;-83
2021/08/17 09:01:24;;;;;;;7.90;4.70;;;25.10;94.10;;;;;;5074533;28;20119;-83
2021/08/17 09:03:52;;;;;;;6.60;4.20;;;25.00;94.00;;;;;;5074108;28;20057;-83
2021/08/17 09:06:29;;;;;;;5.05;3.85;;;25.00;94.00;;;;;;5074337;28;20468;-83
2021/08/17 09:09:09;;;;;;;7.85;4.03;;;25.00;94.00;;;;;;5074767;28;20040;-83
2021/08/17 09:11:39;;;;;;;8.40;5.05;;;25.00;93.90;;;;;;5094380;28;20085;-87
2021/08/17 09:14:32;;;;;;;8.05;3.90;;;25.00;93.90;;;;;;5078267;28;20081;-83
2021/08/17 09:17:02;;;;;;;8.00;4.07;;;25.10;93.90;;;;;;5067301;28;20125;-83
2021/08/17 09:19:30;;;;;;;7.75;4.03;;;25.00;93.80;;;;;;5096626;28;20024;-83
2021/08/17 09:22:00;;;;;;;7.05;3.95;;;25.00;93.80;;;;;;5096089;28;20024;-82
2021/08/17 09:24:28;;;;;;;5.63;3.70;;;25.00;93.80;;;;;;5077807;28;20407;-83
2021/08/17 09:26:59;;;;;;;6.03;3.90;;;25.00;93.80;;;;;;5077768;28;20024;-83
2021/08/17 09:29:32;;;;;;;5.50;3.55;;;25.00;93.80;;;;;;5077965;28;20070;-83
2021/08/17 09:32:11;;;;;;;5.68;3.92;;;25.00;93.80;;;;;;5078143;28;20028;-85
2021/08/17 09:34:37;;;;;;;4.07;3.20;;;25.00;93.80;;;;;;5094909;28;20115;-87
2021/08/17 09:37:07;;;;;;;5.13;3.47;;;25.00;93.80;;;;;;5095881;28;20032;-83
2021/08/17 09:39:39;;;;;;;5.50;3.70;;;25.00;93.70;;;;;;5077537;28;20028;-83
2021/08/17 09:42:18;;;;;;;4.20;3.30;;;25.00;93.70;;;;;;5096083;28;20020;-83
2021/08/17 09:44:46;;;;;;;4.75;3.22;;;25.00;93.70;;;;;;5074667;28;20038;-83
2021/08/17 09:47:12;;;;;;;5.70;3.63;;;25.00;93.70;;;;;;5079406;28;20124;-83
2021/08/17 09:49:39;;;;;;;5.57;3.63;;;25.00;93.60;;;;;;5095757;28;20035;-83
2021/08/17 09:52:11;;;;;;;5.10;3.40;;;25.00;93.60;;;;;;5078137;28;20026;-84
2021/08/17 09:54:43;;;;;;;5.07;3.50;;;25.00;93.60;;;;;;5096160;28;20032;-83
2021/08/17 09:57:10;;;;;;;6.00;3.45;;;25.00;93.60;;;;;;5095828;28;20049;-83
2021/08/17 09:59:39;;;;;;;5.32;3.70;;;25.00;93.60;;;;;;5095473;28;20024;-83
2021/08/17 10:02:06;;;;;;;4.38;3.22;;;25.00;93.60;;;;;;5061424;28;20040;-83
2021/08/17 10:04:32;;;;;;;5.30;3.60;;;25.00;93.70;;;;;;5060435;28;20036;-84
2021/08/17 10:07:02;;;;;;;4.60;3.42;;;25.00;93.60;;;;;;5060412;28;20427;-83
2021/08/17 10:09:30;;;;;;;5.50;3.35;;;25.00;93.60;;;;;;5095522;28;20025;-83
2021/08/17 10:11:55;;;;;;;5.93;3.50;;;25.00;93.70;;;;;;5095077;28;20031;-83
2021/08/17 10:14:21;;;;;;;5.15;3.50;;;25.00;93.70;;;;;;5060647;28;20036;-83
2021/08/17 10:16:47;;;;;;;4.72;3.38;;;25.00;93.70;;;;;;5076682;28;20034;-83
2021/08/17 10:19:20;;;;;;;6.57;3.58;;;25.00;93.70;;;;;;5060191;28;20028;-83
2021/08/17 10:21:49;;;;;;;5.10;3.40;;;25.00;93.80;;;;;;5094758;28;20424;-84
2021/08/17 10:24:31;;;;;;;6.82;3.40;;;25.00;93.80;;;;;;5095491;28;20048;-83
2021/08/17 10:27:15;;;;;;;4.63;2.90;;;25.00;93.80;;;;;;5076451;28;20043;-83
2021/08/17 10:30:04;;;;;;;5.03;3.10;;;25.00;93.90;;;;;;5095066;28;20516;-83
2021/08/17 10:32:43;;;;;;;5.20;3.33;;;25.00;93.90;;;;;;5094770;28;20043;-83
2021/08/17 10:35:28;;;;;;;5.88;3.60;;;25.00;94.00;;;;;;5077724;28;20037;-83
2021/08/17 10:38:30;;;;;;;;;;;25.00;94.10;;;;;;5076554;28;20027;-83
2021/08/17 10:40:54;;;;;;;4.72;3.38;;;25.00;94.10;;;;;;5093960;28;19904;-83
2021/08/17 10:43:26;;;;;;;4.80;3.10;;;25.00;94.20;;;;;;5077383;28;20035;-83
2021/08/17 10:45:55;;;;;;;4.82;3.30;;;25.00;94.30;;;;;;5076332;28;20035;-84
2021/08/17 10:48:46;;;;;;;3.60;3.30;;;25.00;94.30;;;;;;5094821;28;20115;-83
2021/08/17 10:51:37;;;;;;;5.25;4.25;;;25.00;94.40;;;;;;5094636;28;20024;-83
2021/08/17 10:54:03;;;;;;;6.85;4.25;;;25.00;94.50;;;;;;5075810;28;20111;-82
2021/08/17 10:56:33;;;;;;;5.32;4.40;;;25.00;94.60;;;;;;5095768;28;20107;-83
2021/08/17 10:58:59;;;;;;;5.90;4.20;;;25.00;94.70;;;;;;5076477;28;20028;-83
2021/08/17 11:01:31;;;;;;;7.20;4.65;;;25.00;94.80;;;;;;5076330;28;20424;-84
2021/08/17 11:04:10;;;;;;;5.95;4.50;;;25.00;94.90;;;;;;5075830;28;20040;-83
2021/08/17 11:06:54;;;;;;;5.82;4.75;;;25.00;94.90;;;;;;5076176;28;20050;-83
2021/08/17 11:09:30;;;;;;;6.35;4.60;;;25.00;95.00;;;;;;5075858;28;20457;-83
2021/08/17 11:12:03;;;;;;;7.57;5.22;;;25.00;95.10;;;;;;5091785;28;20040;-83
2021/08/17 11:14:31;;;;;;;6.78;5.07;;;25.00;95.10;;;;;;5094171;28;20099;-83
2021/08/17 11:17:02;;;;;;;10.27;6.28;;;25.00;95.20;;;;;;5094770;28;20042;-83
2021/08/17 11:19:37;;;;;;;7.13;5.25;;;25.00;95.20;;;;;;5076472;28;20465;-84
2021/08/17 11:22:05;;;;;;;9.10;6.45;;;25.00;95.30;;;;;;5075759;28;20023;-83
2021/08/17 11:24:33;;;;;;;8.20;6.45;;;25.00;95.40;;;;;;5075307;28;20056;-83
2021/08/17 11:27:03;;;;;;;10.20;6.43;;;25.00;95.40;;;;;;5058967;28;20546;-83
2021/08/17 11:29:33;;;;;;;9.48;6.85;;;25.00;95.40;;;;;;5096964;28;20020;-83
2021/08/17 11:32:03;;;;;;;8.73;6.25;;;25.00;95.50;;;;;;5092890;28;20466;-83
2021/08/17 11:34:35;;;;;;;8.75;6.25;;;25.00;95.50;;;;;;5093683;28;20020;-83
2021/08/17 11:37:04;;;;;;;8.82;6.00;;;25.00;95.50;;;;;;5093437;28;20024;-84
2021/08/17 11:39:39;;;;;;;9.23;5.65;;;25.00;95.60;;;;;;5075444;28;20031;-83
2021/08/17 11:42:19;;;;;;;8.95;5.60;;;24.90;95.60;;;;;;5076126;28;20028;-83
2021/08/17 11:44:50;;;;;;;9.70;6.15;;;25.00;95.60;;;;;;5075107;28;20115;-83
2021/08/17 11:47:20;;;;;;;7.85;5.65;;;25.00;95.70;;;;;;5074851;28;20028;-83
2021/08/17 11:49:49;;;;;;;8.35;5.72;;;25.00;95.70;;;;;;5093565;28;20111;-84
2021/08/17 11:52:20;;;;;;;6.50;5.22;;;25.00;95.70;;;;;;5092964;28;20024;-83
2021/08/17 11:54:59;;;;;;;7.82;5.40;;;25.00;95.70;;;;;;5076462;28;20127;-83
2021/08/17 11:57:49;;;;;;;10.02;6.40;;;25.00;95.80;;;;;;5093394;28;20039;-83
2021/08/17 12:00:21;;;;;;;6.90;5.47;;;25.00;95.80;;;;;;5062700;28;20028;-84
2021/08/17 12:02:56;;;;;;;8.57;5.63;;;25.00;95.80;;;;;;5075665;28;20533;-84
2021/08/17 12:05:24;;;;;;;7.13;5.07;;;25.00;95.90;;;;;;5093133;28;20067;-83
2021/08/17 12:07:52;;;;;;;8.20;5.80;;;25.00;95.90;;;;;;5074803;28;20071;-84
2021/08/17 12:10:23;;;;;;;9.70;6.65;;;25.00;95.90;;;;;;5092796;28;20127;-83
2021/08/17 12:13:13;;;;;;;8.60;6.45;;;25.00;95.90;;;;;;5093391;28;20103;-85
2021/08/17 12:15:46;;;;;;;7.30;5.95;;;25.00;96.00;;;;;;5075345;28;20111;-83
2021/08/17 12:18:17;;;;;;;8.63;6.18;;;25.00;96.00;;;;;;5074808;28;20024;-83
2021/08/17 12:20:49;;;;;;;7.63;5.80;;;24.90;96.00;;;;;;5075138;28;20073;-84
2021/08/17 12:23:25;;;;;;;9.57;6.68;;;25.00;96.00;;;;;;5074242;28;20028;-84
2021/08/17 12:25:54;;;;;;;8.00;5.85;;;25.00;96.10;;;;;;5074368;28;20044;-83
2021/08/17 12:28:26;;;;;;;8.70;6.20;;;25.00;96.10;;;;;;5074171;28;20186;-84
2021/08/17 12:31:06;;;;;;;8.18;6.18;;;25.00;96.10;;;;;;5074525;28;20020;-83
2021/08/17 12:33:31;;;;;;;6.28;5.60;;;25.00;96.20;;;;;;5077646;28;20046;-83
2021/08/17 12:35:57;;;;;;;7.50;5.82;;;25.00;96.20;;;;;;5073718;28;20032;-83